Terminal Aerodrome Forecast
Issued by NWS Sioux Falls, SD

Home | Current Version | Previous Version | Graphics & Text | Print | Product List | Glossary Off
Versions: 1 2 3 4 5 6 7 8 9 10 11 12 13 14 15 16 17 18 19 20 21 22 23 24 25 26 27 28 29 30 31 32 33 34 35 36 37 38 39 40 41 42 43 44 45 46 47 48 49 50

000
FTUS43 KFSD 270535
TAFSUX
TAF
KSUX 270535Z 2706/2806 08019G27KT P6SM SHRA BKN025
     FM270700 08020G27KT P6SM SHRA OVC020
     FM270900 08021G28KT 6SM SHRA OVC008
     FM272000 09017G24KT P6SM SHRA OVC012
     FM280300 06011KT P6SM SHRA OVC010=

USA.gov is the U.S. government's official web portal to all federal, state and local government web resources and services.